createdAt,value
2022-09-28T00:01:37.869Z,95.90
2022-09-28T00:04:07.009Z,96.10
2022-09-28T00:06:34.977Z,96.20
2022-09-28T00:09:03.122Z,96.20
2022-09-28T00:11:34.119Z,96.30
2022-09-28T00:14:03.598Z,96.30
2022-09-28T00:16:35.794Z,96.80
2022-09-28T00:19:05.201Z,96.70
2022-09-28T00:21:35.279Z,96.90
2022-09-28T00:24:15.209Z,97.20
2022-09-28T00:26:46.699Z,97.20
2022-09-28T00:29:18.318Z,96.90
2022-09-28T00:31:48.576Z,96.90
2022-09-28T00:34:17.856Z,97.00
2022-09-28T00:36:47.779Z,96.90
2022-09-28T00:39:16.682Z,97.00
2022-09-28T00:41:45.161Z,96.80
2022-09-28T00:44:35.667Z,96.80
2022-09-28T00:47:22.008Z,96.70
2022-09-28T00:49:54.624Z,96.70
2022-09-28T00:52:27.783Z,96.80
2022-09-28T00:54:57.753Z,96.90
2022-09-28T00:57:26.323Z,96.70
2022-09-28T00:59:54.345Z,96.70
2022-09-28T01:02:23.871Z,97.30
2022-09-28T01:04:52.813Z,96.90
2022-09-28T01:07:22.406Z,96.60
2022-09-28T01:09:51.433Z,96.50
2022-09-28T01:12:19.488Z,96.40
2022-09-28T01:14:48.875Z,96.20
2022-09-28T01:17:18.781Z,96.20
2022-09-28T01:20:14.011Z,96.00
2022-09-28T01:23:32.903Z,96.00
2022-09-28T01:26:33.099Z,96.20
2022-09-28T01:29:06.073Z,96.00
2022-09-28T01:31:38.414Z,96.10
2022-09-28T01:34:14.874Z,96.00
2022-09-28T01:36:56.490Z,95.90
2022-09-28T01:39:30.547Z,95.90
2022-09-28T01:42:05.835Z,95.80
2022-09-28T01:44:39.750Z,96.00
2022-09-28T01:47:10.455Z,96.00
2022-09-28T01:49:42.524Z,95.90
2022-09-28T01:52:17.018Z,95.70
2022-09-28T01:54:50.427Z,95.60
2022-09-28T01:57:25.367Z,95.70
2022-09-28T02:00:00.863Z,95.80
2022-09-28T02:02:33.864Z,95.80
2022-09-28T02:05:06.496Z,95.90
2022-09-28T02:07:39.595Z,96.00
2022-09-28T02:10:13.911Z,96.10
2022-09-28T02:12:47.782Z,96.00
2022-09-28T02:15:21.456Z,96.30
2022-09-28T02:17:50.171Z,96.10
2022-09-28T02:20:18.655Z,96.20
2022-09-28T02:22:56.672Z,96.20
2022-09-28T02:25:31.421Z,96.00
2022-09-28T02:28:03.707Z,96.00
2022-09-28T02:30:33.218Z,95.90
2022-09-28T02:33:06.350Z,95.80
2022-09-28T02:35:35.367Z,95.90
2022-09-28T02:38:03.546Z,95.90
2022-09-28T02:40:34.705Z,96.30
2022-09-28T02:43:14.741Z,96.20
2022-09-28T02:45:52.346Z,96.40
2022-09-28T02:48:43.592Z,96.50
2022-09-28T02:51:24.863Z,96.60
2022-09-28T02:54:18.957Z,96.90
2022-09-28T02:56:57.484Z,96.90
2022-09-28T02:59:40.668Z,97.00
2022-09-28T03:02:19.213Z,97.10
2022-09-28T03:04:54.332Z,97.20
2022-09-28T03:07:27.203Z,97.30
2022-09-28T03:10:02.323Z,97.50
2022-09-28T03:12:31.474Z,97.40
2022-09-28T03:15:12.397Z,97.30
2022-09-28T03:17:40.566Z,97.70
2022-09-28T03:20:10.978Z,97.50
2022-09-28T03:22:39.372Z,97.30
2022-09-28T03:25:08.955Z,97.20
2022-09-28T03:27:37.087Z,97.20
2022-09-28T03:30:06.467Z,97.10
2022-09-28T03:32:36.263Z,97.40
2022-09-28T03:35:04.985Z,97.20
2022-09-28T03:37:32.943Z,97.20
2022-09-28T03:40:01.396Z,97.20
2022-09-28T03:42:29.560Z,97.20
2022-09-28T03:44:58.009Z,97.30
2022-09-28T03:47:25.930Z,97.50
2022-09-28T03:49:55.653Z,97.50
2022-09-28T03:52:23.579Z,97.50
2022-09-28T03:54:51.743Z,97.50
2022-09-28T03:57:19.699Z,97.30
2022-09-28T03:59:47.658Z,97.20
2022-09-28T04:02:15.709Z,97.20
2022-09-28T04:04:43.679Z,97.10
2022-09-28T04:07:13.015Z,97.00
2022-09-28T04:09:40.946Z,97.10
2022-09-28T04:12:09.019Z,97.20
2022-09-28T04:14:37.003Z,96.80
2022-09-28T04:17:06.619Z,96.60
2022-09-28T04:19:34.735Z,96.70
2022-09-28T04:22:03.066Z,96.60
2022-09-28T04:24:33.638Z,96.70
2022-09-28T04:27:15.708Z,96.50
2022-09-28T04:29:44.075Z,96.70
2022-09-28T04:32:12.892Z,97.10
2022-09-28T04:34:44.152Z,97.40
2022-09-28T04:37:12.783Z,97.30
2022-09-28T04:39:45.098Z,97.20
2022-09-28T04:42:16.192Z,97.00
2022-09-28T04:44:44.186Z,97.10
2022-09-28T04:47:12.182Z,97.00
2022-09-28T04:49:40.156Z,97.00
2022-09-28T04:52:08.267Z,97.10
2022-09-28T04:54:36.339Z,96.80
2022-09-28T04:57:06.163Z,96.90
2022-09-28T04:59:34.679Z,96.70
2022-09-28T05:02:02.685Z,96.70
2022-09-28T05:04:31.100Z,96.80
2022-09-28T05:06:59.270Z,96.80
2022-09-28T05:09:27.306Z,96.70
2022-09-28T05:11:55.332Z,96.70
2022-09-28T05:14:24.727Z,96.60
2022-09-28T05:16:52.832Z,96.50
2022-09-28T05:19:21.024Z,96.70
2022-09-28T05:21:49.491Z,96.50
2022-09-28T05:24:17.747Z,96.80
2022-09-28T05:26:45.701Z,96.80
2022-09-28T05:29:14.024Z,96.80
2022-09-28T05:31:43.487Z,96.80
2022-09-28T05:34:11.627Z,96.70
2022-09-28T05:36:40.300Z,96.80
2022-09-28T05:39:08.326Z,96.50
2022-09-28T05:41:36.791Z,96.70
2022-09-28T05:44:04.759Z,96.50
2022-09-28T05:46:32.895Z,96.70
2022-09-28T05:49:02.523Z,96.80
2022-09-28T05:51:30.615Z,96.80
2022-09-28T05:54:04.605Z,97.00
2022-09-28T05:56:33.824Z,97.00
2022-09-28T05:59:02.145Z,97.00
2022-09-28T06:01:30.378Z,97.10
2022-09-28T06:03:58.539Z,96.90
2022-09-28T06:06:27.898Z,96.90
2022-09-28T06:08:55.875Z,96.80
2022-09-28T06:11:26.926Z,96.50
2022-09-28T06:13:56.042Z,96.70
2022-09-28T06:16:24.157Z,96.70
2022-09-28T06:18:52.151Z,96.80
2022-09-28T06:21:20.246Z,97.00
2022-09-28T06:23:49.637Z,97.00
2022-09-28T06:26:18.026Z,96.80
2022-09-28T06:28:46.267Z,96.90
2022-09-28T06:31:14.252Z,96.80
2022-09-28T06:33:42.751Z,96.60
2022-09-28T06:36:11.002Z,96.80
2022-09-28T06:38:39.217Z,96.90
2022-09-28T06:41:08.721Z,96.80
2022-09-28T06:43:37.107Z,96.80
2022-09-28T06:46:05.265Z,96.90
2022-09-28T06:48:33.979Z,96.90
2022-09-28T06:51:02.369Z,96.80
2022-09-28T06:53:31.442Z,96.90
2022-09-28T06:55:59.844Z,96.80
2022-09-28T06:58:29.182Z,96.80
2022-09-28T07:00:59.970Z,96.60
2022-09-28T07:03:40.639Z,96.70
2022-09-28T07:06:12.598Z,96.50
2022-09-28T07:08:40.704Z,96.40
2022-09-28T07:11:09.499Z,96.50
2022-09-28T07:13:50.995Z,96.50
2022-09-28T07:16:24.083Z,96.00
2022-09-28T07:18:53.863Z,96.10
2022-09-28T07:21:29.222Z,96.00
2022-09-28T07:24:00.108Z,95.70
2022-09-28T07:26:28.154Z,96.10
2022-09-28T07:28:57.453Z,95.60
2022-09-28T07:31:26.270Z,95.50
2022-09-28T07:33:56.363Z,95.70
2022-09-28T07:36:24.404Z,95.20
2022-09-28T07:38:52.335Z,94.70
2022-09-28T07:41:32.028Z,94.60
2022-09-28T07:44:06.000Z,94.90
2022-09-28T07:46:34.548Z,95.00
2022-09-28T07:49:08.377Z,94.40
2022-09-28T07:51:39.563Z,94.60
2022-09-28T07:54:07.614Z,94.80
2022-09-28T07:56:35.546Z,94.80
2022-09-28T07:59:04.958Z,94.80
2022-09-28T08:01:33.163Z,95.00
2022-09-28T08:04:01.217Z,95.20
2022-09-28T08:06:31.754Z,95.40
2022-09-28T08:09:01.721Z,95.50
2022-09-28T08:11:29.674Z,95.70
2022-09-28T08:14:00.077Z,95.60
2022-09-28T08:16:30.383Z,95.50
2022-09-28T08:19:04.773Z,95.50
2022-09-28T08:21:46.774Z,95.50
2022-09-28T08:24:15.396Z,95.30
2022-09-28T08:26:44.087Z,95.40
2022-09-28T08:29:12.412Z,95.30
2022-09-28T08:31:41.830Z,94.90
2022-09-28T08:34:10.041Z,94.90
2022-09-28T08:36:38.823Z,95.00
2022-09-28T08:39:07.000Z,94.90
2022-09-28T08:41:47.441Z,95.30
2022-09-28T08:44:23.887Z,95.50
2022-09-28T08:46:57.643Z,95.00
2022-09-28T08:49:30.057Z,94.30
2022-09-28T08:52:01.972Z,94.00
2022-09-28T08:54:38.952Z,94.00
2022-09-28T08:57:12.381Z,94.40
2022-09-28T08:59:47.931Z,94.60
2022-09-28T09:02:23.138Z,94.30
2022-09-28T09:04:52.004Z,94.70
2022-09-28T09:07:50.528Z,94.50
2022-09-28T09:10:48.636Z,94.30
2022-09-28T09:13:50.072Z,94.10
2022-09-28T09:16:30.307Z,94.00
2022-09-28T09:19:07.628Z,93.70
2022-09-28T09:21:44.944Z,93.50
2022-09-28T09:24:24.948Z,93.30
2022-09-28T09:27:05.407Z,92.60
2022-09-28T09:29:56.055Z,92.90
2022-09-28T09:32:41.166Z,92.40
2022-09-28T09:35:31.506Z,92.60
2022-09-28T09:38:11.425Z,92.60
2022-09-28T09:41:00.440Z,92.40
2022-09-28T09:43:59.880Z,92.70
2022-09-28T09:46:36.720Z,92.10
2022-09-28T09:49:14.247Z,91.40
2022-09-28T09:51:47.807Z,91.50
2022-09-28T09:54:23.113Z,92.20
2022-09-28T09:56:56.568Z,92.20
2022-09-28T09:59:28.719Z,92.20
2022-09-28T10:01:57.898Z,92.00
2022-09-28T10:04:30.115Z,92.00
2022-09-28T10:07:04.558Z,91.60
2022-09-28T10:09:37.294Z,91.70
2022-09-28T10:12:05.545Z,91.90
2022-09-28T10:14:33.478Z,91.70
2022-09-28T10:17:04.603Z,91.80
2022-09-28T10:19:34.561Z,91.60
2022-09-28T10:22:06.843Z,91.70
2022-09-28T10:24:39.946Z,92.00
2022-09-28T10:27:14.460Z,91.50
2022-09-28T10:29:50.635Z,91.30
2022-09-28T10:32:23.883Z,90.70
2022-09-28T10:34:53.479Z,90.70
2022-09-28T10:37:24.161Z,90.90
2022-09-28T10:39:54.267Z,91.00
2022-09-28T10:42:27.078Z,91.70
2022-09-28T10:44:57.935Z,92.40
2022-09-28T10:47:29.113Z,92.80
2022-09-28T10:49:57.637Z,92.80
2022-09-28T10:52:46.236Z,93.50
2022-09-28T10:55:30.485Z,93.40
2022-09-28T10:57:58.546Z,93.50
2022-09-28T11:00:35.744Z,93.40
2022-09-28T11:03:04.279Z,93.50
2022-09-28T11:05:32.814Z,93.10
2022-09-28T11:08:07.581Z,92.60
2022-09-28T11:10:37.189Z,92.40
2022-09-28T11:13:09.917Z,92.30
2022-09-28T11:15:43.702Z,92.70
2022-09-28T11:18:26.666Z,91.80
2022-09-28T11:21:12.953Z,91.90
2022-09-28T11:23:44.112Z,92.30
2022-09-28T11:26:18.302Z,92.30
2022-09-28T11:28:53.161Z,92.30
2022-09-28T11:31:28.408Z,92.10
2022-09-28T11:34:07.523Z,91.80
2022-09-28T11:36:58.363Z,91.80
2022-09-28T11:39:40.765Z,92.70
2022-09-28T11:42:26.055Z,91.90
2022-09-28T11:45:01.991Z,92.20
2022-09-28T11:47:50.508Z,92.30
2022-09-28T11:50:26.444Z,92.00
2022-09-28T11:53:04.873Z,91.60
2022-09-28T11:55:39.705Z,92.20
2022-09-28T11:58:14.030Z,92.70
2022-09-28T12:00:47.667Z,92.60
2022-09-28T12:03:19.664Z,93.00
2022-09-28T12:05:53.387Z,93.30
2022-09-28T12:08:27.338Z,93.40
2022-09-28T12:11:00.808Z,93.40
2022-09-28T12:13:31.543Z,93.70
2022-09-28T12:16:45.174Z,93.70
2022-09-28T12:18:54.526Z,93.90
2022-09-28T12:21:37.736Z,93.30
2022-09-28T12:24:14.814Z,92.00
2022-09-28T12:26:51.107Z,91.30
2022-09-28T12:29:25.392Z,91.40
2022-09-28T12:32:07.997Z,92.20
2022-09-28T12:34:36.452Z,91.80
2022-09-28T12:37:26.832Z,91.10
2022-09-28T12:40:10.720Z,91.00
2022-09-28T12:43:03.799Z,92.10
2022-09-28T12:46:09.938Z,91.30
2022-09-28T12:49:36.673Z,91.80
2022-09-28T12:51:50.491Z,91.00
2022-09-28T12:54:44.095Z,91.60
2022-09-28T12:57:32.017Z,91.00
2022-09-28T13:00:06.251Z,91.60
2022-09-28T13:02:51.722Z,91.80
2022-09-28T13:05:39.428Z,91.40
2022-09-28T13:08:13.477Z,91.80
2022-09-28T13:10:47.787Z,91.90
2022-09-28T13:13:32.330Z,92.20
2022-09-28T13:16:06.126Z,92.10
2022-09-28T13:18:42.229Z,91.80
2022-09-28T13:21:28.349Z,92.40
2022-09-28T13:24:20.628Z,92.20
2022-09-28T13:26:50.208Z,92.20
2022-09-28T13:29:20.639Z,92.50
2022-09-28T13:31:54.819Z,92.40
2022-09-28T13:34:26.555Z,91.90
2022-09-28T13:37:24.506Z,92.70
2022-09-28T13:39:56.270Z,92.80
2022-09-28T13:42:29.870Z,92.50
2022-09-28T13:45:18.567Z,92.90
2022-09-28T13:48:12.183Z,92.40
2022-09-28T13:50:53.362Z,93.00
2022-09-28T13:53:30.928Z,92.60
2022-09-28T13:56:06.481Z,92.90
2022-09-28T13:58:39.634Z,93.10
2022-09-28T14:01:13.146Z,92.90
2022-09-28T14:03:57.313Z,93.00
2022-09-28T14:06:30.660Z,93.20
2022-09-28T14:09:24.531Z,93.10
2022-09-28T14:11:59.401Z,93.30
2022-09-28T14:14:50.074Z,92.90
2022-09-28T14:17:52.895Z,93.10
2022-09-28T14:20:27.091Z,93.30
2022-09-28T14:23:36.405Z,93.40
2022-09-28T14:26:33.242Z,93.80
2022-09-28T14:29:19.723Z,93.60
2022-09-28T14:31:47.883Z,93.50
2022-09-28T14:34:42.591Z,93.90
2022-09-28T14:37:43.629Z,93.70
2022-09-28T14:40:38.400Z,93.30
2022-09-28T14:43:28.151Z,93.60
2022-09-28T14:46:29.544Z,93.80
2022-09-28T14:49:01.573Z,93.90
2022-09-28T14:52:02.496Z,94.00
2022-09-28T14:54:42.873Z,93.90
2022-09-28T14:57:18.822Z,93.90
2022-09-28T14:59:47.878Z,94.00
2022-09-28T15:02:23.857Z,93.90
2022-09-28T15:04:54.920Z,94.10
2022-09-28T15:07:26.492Z,94.00
2022-09-28T15:09:57.259Z,93.90
2022-09-28T15:12:28.509Z,93.90
2022-09-28T15:14:59.344Z,93.90
2022-09-28T15:17:30.371Z,93.80
2022-09-28T15:20:24.383Z,93.80
2022-09-28T15:22:57.017Z,94.00
2022-09-28T15:25:28.584Z,94.10
2022-09-28T15:27:58.958Z,94.10
2022-09-28T15:30:29.335Z,93.90
2022-09-28T15:33:18.925Z,93.90
2022-09-28T15:35:49.901Z,94.00
2022-09-28T15:38:18.408Z,93.80
2022-09-28T15:40:48.430Z,94.00
2022-09-28T15:43:27.000Z,94.10
2022-09-28T15:46:02.589Z,94.00
2022-09-28T15:48:35.007Z,94.10
2022-09-28T15:51:10.399Z,93.90
2022-09-28T15:53:43.628Z,93.90
2022-09-28T15:56:13.091Z,94.00
2022-09-28T15:58:44.530Z,93.90
2022-09-28T16:01:36.016Z,93.70
2022-09-28T16:04:38.419Z,93.70
2022-09-28T16:07:23.154Z,93.90
2022-09-28T16:10:03.271Z,93.80
2022-09-28T16:12:43.335Z,93.80
2022-09-28T16:15:20.801Z,93.90
2022-09-28T16:17:54.415Z,93.70
2022-09-28T16:20:28.428Z,93.90
2022-09-28T16:22:57.772Z,93.90
2022-09-28T16:25:27.672Z,93.70
2022-09-28T16:27:57.242Z,93.80
2022-09-28T16:30:28.774Z,93.70
2022-09-28T16:32:58.594Z,93.70
2022-09-28T16:35:29.545Z,93.80
2022-09-28T16:38:03.607Z,93.70
2022-09-28T16:40:33.227Z,93.70
2022-09-28T16:43:05.607Z,93.80
2022-09-28T16:45:35.126Z,93.90
2022-09-28T16:48:03.700Z,93.90
2022-09-28T16:50:31.665Z,94.00
2022-09-28T16:53:20.315Z,93.70
2022-09-28T16:55:50.431Z,93.80
2022-09-28T16:58:19.824Z,93.60
2022-09-28T17:00:47.801Z,93.40
2022-09-28T17:03:18.456Z,93.50
2022-09-28T17:05:48.713Z,93.30
2022-09-28T17:08:18.809Z,93.40
2022-09-28T17:13:42.246Z,93.50
2022-09-28T17:16:14.655Z,93.40
2022-09-28T17:18:43.241Z,93.50
2022-09-28T17:21:15.688Z,93.60
2022-09-28T17:23:43.943Z,93.50
2022-09-28T17:26:19.842Z,93.50
2022-09-28T17:28:50.064Z,93.50
2022-09-28T17:31:18.614Z,93.50
2022-09-28T17:33:46.918Z,93.60
2022-09-28T17:36:18.048Z,93.80
2022-09-28T17:38:47.591Z,93.80
2022-09-28T17:41:20.505Z,94.00
2022-09-28T17:43:50.715Z,93.90
2022-09-28T17:46:27.450Z,94.20
2022-09-28T17:48:59.258Z,94.10
2022-09-28T17:51:28.139Z,94.20
2022-09-28T17:53:56.875Z,94.20
2022-09-28T17:56:29.682Z,94.20
2022-09-28T17:59:03.196Z,94.30
2022-09-28T18:01:34.375Z,94.40
2022-09-28T18:04:03.721Z,94.60
2022-09-28T18:06:33.646Z,94.60
2022-09-28T18:09:02.788Z,94.60
2022-09-28T18:11:31.095Z,94.60
2022-09-28T18:14:00.614Z,94.70
2022-09-28T18:16:29.309Z,94.70
2022-09-28T18:18:57.296Z,94.60
2022-09-28T18:21:25.559Z,94.60
2022-09-28T18:23:53.712Z,95.00
2022-09-28T18:26:22.007Z,95.20
2022-09-28T18:28:55.035Z,95.30
2022-09-28T18:31:24.724Z,95.20
2022-09-28T18:34:00.017Z,95.30
2022-09-28T18:36:31.628Z,95.30
2022-09-28T18:39:01.984Z,95.30
2022-09-28T18:41:30.397Z,95.20
2022-09-28T18:44:00.854Z,95.50
2022-09-28T18:46:36.647Z,95.20
2022-09-28T18:49:05.149Z,95.30
2022-09-28T18:51:33.646Z,95.30
2022-09-28T18:54:07.517Z,95.40
2022-09-28T18:56:38.070Z,95.20
2022-09-28T18:59:09.973Z,95.30
2022-09-28T19:01:43.126Z,95.40
2022-09-28T19:04:13.480Z,95.60
2022-09-28T19:06:44.819Z,95.50
2022-09-28T19:09:13.455Z,95.30
2022-09-28T19:11:41.715Z,95.40
2022-09-28T19:14:14.960Z,95.50
2022-09-28T19:16:45.779Z,95.80
2022-09-28T19:19:19.023Z,95.70
2022-09-28T19:21:48.620Z,96.10
2022-09-28T19:24:18.500Z,95.90
2022-09-28T19:26:47.386Z,96.00
2022-09-28T19:29:16.379Z,96.20
2022-09-28T19:31:46.310Z,96.40
2022-09-28T19:34:15.270Z,96.50
2022-09-28T19:36:43.712Z,96.70
2022-09-28T19:39:15.021Z,96.70
2022-09-28T19:41:49.244Z,96.70
2022-09-28T19:44:24.268Z,96.80
2022-09-28T19:46:55.655Z,96.90
2022-09-28T19:49:24.721Z,97.00
2022-09-28T19:52:14.443Z,97.10
2022-09-28T19:54:44.867Z,97.10
2022-09-28T19:57:15.727Z,97.00
2022-09-28T19:59:44.410Z,97.10
2022-09-28T20:02:14.069Z,97.20
2022-09-28T20:04:42.085Z,97.20
2022-09-28T20:07:10.050Z,97.40
2022-09-28T20:09:38.069Z,97.40
2022-09-28T20:12:06.413Z,97.40
2022-09-28T20:14:39.500Z,97.30
2022-09-28T20:17:08.567Z,97.20
2022-09-28T20:19:38.612Z,97.30
2022-09-28T20:22:07.205Z,97.40
2022-09-28T20:24:35.210Z,97.50
2022-09-28T20:27:03.484Z,97.60
2022-09-28T20:29:33.214Z,97.60
2022-09-28T20:32:02.173Z,97.80
2022-09-28T20:34:31.087Z,97.70
2022-09-28T20:37:02.166Z,97.70
2022-09-28T20:39:30.677Z,97.80
2022-09-28T20:41:59.038Z,97.80
2022-09-28T20:44:27.282Z,97.80
2022-09-28T20:46:56.588Z,98.00
2022-09-28T20:49:24.763Z,98.10
2022-09-28T20:51:53.139Z,98.00
2022-09-28T20:54:23.155Z,98.10
2022-09-28T20:56:51.218Z,98.10
2022-09-28T20:59:20.224Z,98.10
2022-09-28T21:01:48.584Z,98.00
2022-09-28T21:04:16.646Z,98.20
2022-09-28T21:06:44.925Z,98.20
2022-09-28T21:09:13.295Z,98.20
2022-09-28T21:11:42.975Z,98.20
2022-09-28T21:14:11.204Z,98.10
2022-09-28T21:16:39.643Z,98.10
2022-09-28T21:19:07.786Z,98.20
2022-09-28T21:21:35.961Z,98.00
2022-09-28T21:24:03.951Z,98.10
2022-09-28T21:26:32.881Z,98.10
2022-09-28T21:29:03.696Z,98.10
2022-09-28T21:31:33.422Z,98.20
2022-09-28T21:34:01.760Z,98.20
2022-09-28T21:36:29.775Z,98.30
2022-09-28T21:38:57.739Z,98.30
2022-09-28T21:41:26.274Z,98.30
2022-09-28T21:43:54.340Z,98.40
2022-09-28T21:46:24.622Z,98.30
2022-09-28T21:48:54.171Z,98.30
2022-09-28T21:51:22.608Z,98.40
2022-09-28T21:53:50.751Z,98.30
2022-09-28T21:56:18.929Z,98.30
2022-09-28T21:58:47.618Z,98.30
2022-09-28T22:01:18.238Z,98.30
2022-09-28T22:03:50.472Z,98.20
2022-09-28T22:06:19.851Z,98.30
2022-09-28T22:08:48.967Z,98.50
2022-09-28T22:11:19.399Z,98.60
2022-09-28T22:13:49.790Z,98.50
2022-09-28T22:16:19.875Z,98.50
2022-09-28T22:18:49.755Z,98.50
2022-09-28T22:21:19.651Z,98.60
2022-09-28T22:23:47.830Z,98.60
2022-09-28T22:26:19.404Z,98.60
2022-09-28T22:28:49.474Z,98.50
2022-09-28T22:31:19.439Z,98.60
2022-09-28T22:33:48.853Z,98.70
2022-09-28T22:36:17.258Z,98.80
2022-09-28T22:38:45.544Z,98.80
2022-09-28T22:41:14.514Z,98.80
2022-09-28T22:43:42.769Z,98.90
2022-09-28T22:46:12.710Z,98.90
2022-09-28T22:48:42.354Z,98.90
2022-09-28T22:51:11.768Z,98.90
2022-09-28T22:53:39.802Z,98.80
2022-09-28T22:56:08.870Z,98.80
2022-09-28T22:58:38.159Z,98.80
2022-09-28T23:01:07.754Z,98.90
2022-09-28T23:03:36.275Z,98.90
2022-09-28T23:06:04.486Z,99.00
2022-09-28T23:08:34.531Z,98.90
2022-09-28T23:11:02.813Z,98.90
2022-09-28T23:13:31.138Z,98.90
2022-09-28T23:16:00.613Z,99.00
2022-09-28T23:18:30.627Z,98.90
2022-09-28T23:21:00.654Z,99.00
2022-09-28T23:23:29.291Z,99.00
2022-09-28T23:25:58.814Z,98.90
2022-09-28T23:28:27.788Z,98.90
2022-09-28T23:30:56.207Z,98.90
2022-09-28T23:33:24.254Z,99.00
2022-09-28T23:35:52.196Z,99.00
2022-09-28T23:38:20.166Z,98.90
2022-09-28T23:40:48.878Z,99.10
2022-09-28T23:43:18.290Z,99.00
2022-09-28T23:45:46.780Z,99.00
2022-09-28T23:48:15.206Z,99.00
2022-09-28T23:50:43.972Z,99.00
2022-09-28T23:53:13.572Z,99.00
2022-09-28T23:55:43.098Z,98.80
2022-09-28T23:58:11.655Z,98.90
